• Join FlightAware (Why Join?)
  • Login
  • US Flag 
09:29PM EDT


 

Airport Tracker/Info


-or-


 

Live Flight TrackerFlight Track Log ✈ EJA982 ✈ 21-Jun-2013 ✈ KTUS - KLAX

Flight Track Log - Related Links

Times and Time Zones

All times are in EDT time to prevent confusion due to time zone crossing. See the EJA982 flight status page for this flight to view local times or setup timezone preferences in your user account.

Time Position Orientation Groundspeed Altitude Reporting Facility
EDT Latitude Longitude Course Direction KTS MPH feet Rate Location/Type
05:28PM 32.1233 -110.9494 317° Northwest 177 204 3,300  Level Albuquerque Center
05:28PM 32.1453 -110.9739 317° Northwest 199 229 4,600 2,460 Climbing Albuquerque Center
05:29PM 32.1661 -111.0089 305° West 215 247 6,400 3,060 Climbing Albuquerque Center
05:30PM 32.1983 -111.0792 298° West 236 272 10,100 2,640 Climbing Albuquerque Center
05:31PM 32.2417 -111.1647 301° West 293 337 11,900 2,580 Climbing Albuquerque Center
05:32PM 32.3014 -111.2911 299° West 357 411 15,400 2,640 Climbing Albuquerque Center
05:33PM 32.3542 -111.4003 300° West 375 432 17,400 1,740 Climbing Albuquerque Center
05:34PM 32.4083 -111.5119 300° West 388 447 19,100 1,440 Climbing Albuquerque Center
05:35PM 32.4617 -111.6233 300° West 389 448 20,400 1,980 Climbing Albuquerque Center
05:36PM 32.5131 -111.7344 299° West 387 445 23,200 2,460 Climbing Albuquerque Center
05:37PM 32.5603 -111.8317 300° West 354 407 25,500 2,220 Climbing Albuquerque Center
05:38PM 32.6183 -111.9544 299° West 353 406 27,800 1,980 Climbing Albuquerque Center
05:39PM 32.6683 -112.0578 300° West 358 412 29,600 1,740 Climbing Albuquerque Center
05:41PM 32.7186 -112.1628 300° West 361 415 31,500 1,620 Climbing Albuquerque Center
05:42PM 32.7686 -112.2733 298° West 367 422 33,000 1,320 Climbing Albuquerque Center
05:43PM 32.8219 -112.3836 300° West 379 436 34,300 900 Climbing Albuquerque Center
05:44PM 32.8764 -112.5025 299° West 400 460 34,900 780 Climbing Albuquerque Center
05:45PM 32.9467 -112.6517 299° West 427 491 36,000 480 Climbing Albuquerque Center
05:46PM 33.0097 -112.7817 300° West 447 514 36,000 60 Level Albuquerque Center
05:47PM 33.0644 -112.9261 294° West 475 547 36,200 540 Climbing Albuquerque Center
05:48PM 33.1181 -113.0675 294° West 475 547 37,200 840 Climbing Albuquerque Center
05:49PM 33.1708 -113.2061 294° West 468 539 38,000 360 Climbing Albuquerque Center
05:50PM 33.2364 -113.3742 295° West 467 537 38,000  Level Albuquerque Center
05:51PM 33.2900 -113.5181 294° West 473 544 38,000  Level Albuquerque Center
05:52PM 33.3436 -113.6603 294° West 472 543 38,000  Level Albuquerque Center
05:53PM 33.3831 -113.8094 288° West 475 547 38,000  Level Albuquerque Center
05:54PM 33.4114 -113.9606 283° West 470 541 38,000  Level Albuquerque Center
05:55PM 33.4403 -114.1144 283° West 474 545 38,000  Level Albuquerque Center
05:56PM 33.4742 -114.2958 283° West 469 540 38,000  Level Albuquerque Center
05:57PM 33.5017 -114.4489 282° West 469 540 38,000  Level Albuquerque Center
05:58PM 33.5211 -114.5492 283° West 468 539 38,000  Level Los Angeles Center
05:59PM 33.5503 -114.7017 283° West 470 541 38,000  Level Los Angeles Center
06:00PM 33.5767 -114.8542 282° West 470 541 38,000  Level Los Angeles Center
06:01PM 33.6025 -115.0050 282° West 465 535 38,000  Level Los Angeles Center
06:02PM 33.6294 -115.1569 282° West 467 537 38,000  Level Los Angeles Center
06:03PM 33.6608 -115.3372 282° West 463 533 38,000  Level Los Angeles Center
06:04PM 33.6864 -115.4864 282° West 460 529 38,000  Level Los Angeles Center
06:05PM 33.7122 -115.6364 282° West 460 529 38,000 -840 Level Los Angeles Center
06:06PM 33.7369 -115.7850 281° West 458 527 36,300 -1,980 Descending Los Angeles Center
06:07PM 33.7633 -115.9403 282° West 474 545 34,000 -2,280 Descending Los Angeles Center
06:08PM 33.7894 -116.0956 281° West 479 551 31,700 -2,460 Descending Los Angeles Center
06:09PM 33.8206 -116.2822 281° West 477 549 28,900 -2,400 Descending Los Angeles Center
06:10PM 33.8458 -116.4344 281° West 467 537 26,700 -2,040 Descending Los Angeles Center
06:11PM 33.8681 -116.5675 281° West 421 484 24,800 -1,800 Descending Los Angeles Center
06:12PM 33.8864 -116.6858 281° West 374 430 23,100 -1,740 Descending Los Angeles Center
06:13PM 33.9067 -116.8064 281° West 367 422 21,300 -1,920 Descending Los Angeles Center
06:14PM 33.9286 -116.9464 281° West 359 413 19,200 -1,800 Descending Los Angeles Center
06:15PM 33.9461 -117.0553 281° West 340 391 17,600 -1,140 Descending Los Angeles Center
06:16PM 33.9519 -117.1628 274° West 326 375 16,900 -780 Descending Los Angeles Center
06:17PM 33.9394 -117.2722 262° West 334 384 16,000 -540 Descending Los Angeles Center
06:18PM 33.9319 -117.3858 265° West 340 391 15,800 -6,600 Descending Los Angeles Center
06:19PM 33.9819 -117.5167 295° West 354 407 2,300 -1,680 Descending Los Angeles Center
06:21PM 34.0167 -117.6333 290° West 355 409 12,200 3,900 Climbing Southern California TRACON
06:22PM 34.0000 -117.7167 256° West 248 285 10,800 -1,380 Descending Southern California TRACON
06:22PM 34.0000 -117.8000 270° West 250 288 9,600 -1,200 Descending Southern California TRACON
06:25PM 33.9822 -117.9442 262° West 208 239 7,300 -1,140 Descending Los Angeles Center
06:26PM 33.9667 -118.0167 256° West 194 223 6,200 -1,080 Descending Southern California TRACON
06:27PM 33.9667 -118.0667 270° West 195 224 5,200 -1,020 Descending Southern California TRACON
06:28PM 33.9631 -118.1369 266° West 196 226 4,100 -1,020 Descending Los Angeles Center
06:29PM 33.9567 -118.1997 263° West 193 222 3,100 -960 Descending Los Angeles Center
06:30PM 33.9494 -118.2642 262° West 173 199 2,100 -900 Descending Los Angeles Center
06:31PM 33.9450 -118.3108 263° West 155 178 1,300 -720 Descending Los Angeles Center
06:32PM 33.9411 -118.3542 264° West 142 163 700 -540 Descending Los Angeles Center
06:33PM 33.9364 -118.4011 263° West 135 155 300 -420 Descending Los Angeles Center
06:35PM 33.9333 -118.4000 270° West  Level FlightAware Approximate
06:42PM 33.9425 -118.4081 270° West  Level Estimated